sensor_id;sensor_type;location;lat;lon;timestamp;P1;durP1;ratioP1;P2;durP2;ratioP2
48751;SDS011;34544;48.836;9.174;2024-03-23T00:52:52;15.52;;;8.00;;
48751;SDS011;34544;48.836;9.174;2024-03-23T00:55:18;17.33;;;8.65;;
48751;SDS011;34544;48.836;9.174;2024-03-23T00:57:43;14.25;;;8.80;;
48751;SDS011;34544;48.836;9.174;2024-03-23T01:00:09;13.80;;;7.55;;
48751;SDS011;34544;48.836;9.174;2024-03-23T01:02:36;15.55;;;7.68;;
48751;SDS011;34544;48.836;9.174;2024-03-23T01:05:01;17.80;;;8.65;;
48751;SDS011;34544;48.836;9.174;2024-03-23T01:07:27;13.48;;;7.95;;
48751;SDS011;34544;48.836;9.174;2024-03-23T01:09:53;13.27;;;8.55;;
48751;SDS011;34544;48.836;9.174;2024-03-23T01:12:19;15.00;;;8.23;;
48751;SDS011;34544;48.836;9.174;2024-03-23T01:14:45;11.25;;;8.15;;
48751;SDS011;34544;48.836;9.174;2024-03-23T01:17:10;12.70;;;7.82;;
48751;SDS011;34544;48.836;9.174;2024-03-23T01:19:36;11.95;;;7.65;;
48751;SDS011;34544;48.836;9.174;2024-03-23T01:22:04;14.93;;;7.07;;
48751;SDS011;34544;48.836;9.174;2024-03-23T01:24:30;12.02;;;7.15;;
48751;SDS011;34544;48.836;9.174;2024-03-23T01:26:56;15.50;;;7.55;;
48751;SDS011;34544;48.836;9.174;2024-03-23T01:29:21;11.02;;;6.50;;
48751;SDS011;34544;48.836;9.174;2024-03-23T01:31:47;14.05;;;8.18;;
48751;SDS011;34544;48.836;9.174;2024-03-23T01:34:13;11.63;;;6.53;;
48751;SDS011;34544;48.836;9.174;2024-03-23T01:36:39;17.25;;;6.43;;
48751;SDS011;34544;48.836;9.174;2024-03-23T01:39:05;11.30;;;6.03;;
48751;SDS011;34544;48.836;9.174;2024-03-23T01:41:35;7.82;;;5.18;;
48751;SDS011;34544;48.836;9.174;2024-03-23T01:44:03;8.27;;;5.75;;
48751;SDS011;34544;48.836;9.174;2024-03-23T01:46:31;6.43;;;4.32;;
48751;SDS011;34544;48.836;9.174;2024-03-23T01:48:57;6.22;;;4.45;;
48751;SDS011;34544;48.836;9.174;2024-03-23T01:51:23;8.15;;;3.90;;
48751;SDS011;34544;48.836;9.174;2024-03-23T01:53:49;7.45;;;4.63;;
48751;SDS011;34544;48.836;9.174;2024-03-23T01:56:15;8.35;;;2.95;;
48751;SDS011;34544;48.836;9.174;2024-03-23T01:58:41;4.65;;;2.78;;
48751;SDS011;34544;48.836;9.174;2024-03-23T02:01:07;3.53;;;2.42;;
48751;SDS011;34544;48.836;9.174;2024-03-23T02:03:33;4.78;;;2.22;;
48751;SDS011;34544;48.836;9.174;2024-03-23T02:05:59;4.28;;;2.45;;
48751;SDS011;34544;48.836;9.174;2024-03-23T02:08:24;3.25;;;2.35;;
48751;SDS011;34544;48.836;9.174;2024-03-23T02:10:51;6.63;;;2.05;;
48751;SDS011;34544;48.836;9.174;2024-03-23T02:13:17;2.55;;;1.83;;
48751;SDS011;34544;48.836;9.174;2024-03-23T02:15:44;5.13;;;2.38;;
48751;SDS011;34544;48.836;9.174;2024-03-23T02:18:10;3.95;;;2.40;;
48751;SDS011;34544;48.836;9.174;2024-03-23T02:20:36;2.92;;;2.15;;
48751;SDS011;34544;48.836;9.174;2024-03-23T02:23:02;5.72;;;2.28;;
48751;SDS011;34544;48.836;9.174;2024-03-23T02:25:32;5.22;;;2.20;;
48751;SDS011;34544;48.836;9.174;2024-03-23T02:27:59;2.95;;;2.28;;
48751;SDS011;34544;48.836;9.174;2024-03-23T02:30:25;4.18;;;2.58;;
48751;SDS011;34544;48.836;9.174;2024-03-23T02:32:51;3.92;;;2.42;;
48751;SDS011;34544;48.836;9.174;2024-03-23T02:35:17;3.05;;;2.30;;
48751;SDS011;34544;48.836;9.174;2024-03-23T02:37:43;3.85;;;2.60;;
48751;SDS011;34544;48.836;9.174;2024-03-23T02:40:08;4.22;;;2.20;;
48751;SDS011;34544;48.836;9.174;2024-03-23T02:42:34;4.80;;;2.50;;
48751;SDS011;34544;48.836;9.174;2024-03-23T02:45:00;5.10;;;2.30;;
48751;SDS011;34544;48.836;9.174;2024-03-23T02:47:26;4.32;;;2.53;;
48751;SDS011;34544;48.836;9.174;2024-03-23T02:49:51;3.38;;;2.05;;
48751;SDS011;34544;48.836;9.174;2024-03-23T02:52:17;4.80;;;2.25;;
48751;SDS011;34544;48.836;9.174;2024-03-23T02:54:43;4.07;;;2.17;;
48751;SDS011;34544;48.836;9.174;2024-03-23T02:57:10;3.97;;;2.03;;
48751;SDS011;34544;48.836;9.174;2024-03-23T02:59:36;3.75;;;2.13;;
48751;SDS011;34544;48.836;9.174;2024-03-23T03:02:02;3.30;;;1.92;;
48751;SDS011;34544;48.836;9.174;2024-03-23T03:04:29;4.97;;;2.67;;
48751;SDS011;34544;48.836;9.174;2024-03-23T03:06:56;8.05;;;2.17;;
48751;SDS011;34544;48.836;9.174;2024-03-23T03:09:21;5.68;;;2.45;;
48751;SDS011;34544;48.836;9.174;2024-03-23T03:11:47;6.45;;;2.30;;
48751;SDS011;34544;48.836;9.174;2024-03-23T03:14:13;4.57;;;2.10;;
48751;SDS011;34544;48.836;9.174;2024-03-23T03:16:38;3.15;;;2.03;;
48751;SDS011;34544;48.836;9.174;2024-03-23T03:19:04;2.25;;;1.90;;
48751;SDS011;34544;48.836;9.174;2024-03-23T03:21:31;2.63;;;2.10;;
48751;SDS011;34544;48.836;9.174;2024-03-23T03:23:57;2.70;;;2.50;;
48751;SDS011;34544;48.836;9.174;2024-03-23T03:26:23;4.57;;;2.70;;
48751;SDS011;34544;48.836;9.174;2024-03-23T03:28:50;7.00;;;3.83;;
48751;SDS011;34544;48.836;9.174;2024-03-23T03:31:16;7.97;;;5.70;;
48751;SDS011;34544;48.836;9.174;2024-03-23T03:33:42;5.40;;;3.60;;
48751;SDS011;34544;48.836;9.174;2024-03-23T03:36:08;4.90;;;3.00;;
48751;SDS011;34544;48.836;9.174;2024-03-23T03:38:34;4.78;;;3.80;;
48751;SDS011;34544;48.836;9.174;2024-03-23T03:41:01;3.20;;;2.47;;
48751;SDS011;34544;48.836;9.174;2024-03-23T03:43:27;2.38;;;2.05;;
48751;SDS011;34544;48.836;9.174;2024-03-23T03:45:56;6.50;;;2.30;;
48751;SDS011;34544;48.836;9.174;2024-03-23T03:48:22;4.30;;;2.42;;
48751;SDS011;34544;48.836;9.174;2024-03-23T03:50:48;2.95;;;2.38;;
48751;SDS011;34544;48.836;9.174;2024-03-23T03:53:15;3.78;;;2.38;;
48751;SDS011;34544;48.836;9.174;2024-03-23T03:55:41;3.13;;;2.60;;
48751;SDS011;34544;48.836;9.174;2024-03-23T03:58:07;3.47;;;2.20;;
48751;SDS011;34544;48.836;9.174;2024-03-23T04:00:32;5.07;;;2.58;;
48751;SDS011;34544;48.836;9.174;2024-03-23T04:02:58;7.85;;;2.60;;
48751;SDS011;34544;48.836;9.174;2024-03-23T04:05:24;4.47;;;2.35;;
48751;SDS011;34544;48.836;9.174;2024-03-23T04:07:50;5.47;;;2.50;;
48751;SDS011;34544;48.836;9.174;2024-03-23T04:10:16;3.25;;;2.22;;
48751;SDS011;34544;48.836;9.174;2024-03-23T04:12:42;3.33;;;2.33;;
48751;SDS011;34544;48.836;9.174;2024-03-23T04:15:09;2.80;;;2.08;;
48751;SDS011;34544;48.836;9.174;2024-03-23T04:17:35;6.13;;;2.08;;
48751;SDS011;34544;48.836;9.174;2024-03-23T04:20:01;3.35;;;2.03;;
48751;SDS011;34544;48.836;9.174;2024-03-23T04:22:31;3.78;;;2.30;;
48751;SDS011;34544;48.836;9.174;2024-03-23T04:24:56;2.80;;;2.20;;
48751;SDS011;34544;48.836;9.174;2024-03-23T04:27:23;3.67;;;2.30;;
48751;SDS011;34544;48.836;9.174;2024-03-23T04:29:52;8.05;;;2.92;;
48751;SDS011;34544;48.836;9.174;2024-03-23T04:32:18;11.15;;;3.17;;
48751;SDS011;34544;48.836;9.174;2024-03-23T04:34:44;4.10;;;3.33;;
48751;SDS011;34544;48.836;9.174;2024-03-23T04:37:10;10.40;;;3.55;;
48751;SDS011;34544;48.836;9.174;2024-03-23T04:39:36;5.53;;;3.60;;
48751;SDS011;34544;48.836;9.174;2024-03-23T04:42:02;8.10;;;3.83;;
48751;SDS011;34544;48.836;9.174;2024-03-23T04:44:29;5.65;;;3.83;;
48751;SDS011;34544;48.836;9.174;2024-03-23T04:46:56;12.52;;;4.10;;
48751;SDS011;34544;48.836;9.174;2024-03-23T04:49:23;6.50;;;4.57;;
48751;SDS011;34544;48.836;9.174;2024-03-23T04:51:49;6.47;;;4.65;;
48751;SDS011;34544;48.836;9.174;2024-03-23T04:54:15;12.45;;;6.97;;
48751;SDS011;34544;48.836;9.174;2024-03-23T04:56:41;11.10;;;7.53;;
48751;SDS011;34544;48.836;9.174;2024-03-23T04:59:07;10.73;;;7.30;;
48751;SDS011;34544;48.836;9.174;2024-03-23T05:01:33;10.43;;;7.80;;
48751;SDS011;34544;48.836;9.174;2024-03-23T05:04:01;11.70;;;8.55;;
48751;SDS011;34544;48.836;9.174;2024-03-23T05:06:27;15.55;;;9.07;;
48751;SDS011;34544;48.836;9.174;2024-03-23T05:08:53;16.85;;;11.15;;
48751;SDS011;34544;48.836;9.174;2024-03-23T05:11:19;16.67;;;10.48;;
48751;SDS011;34544;48.836;9.174;2024-03-23T05:13:46;15.25;;;11.73;;
48751;SDS011;34544;48.836;9.174;2024-03-23T05:16:12;15.50;;;11.90;;
48751;SDS011;34544;48.836;9.174;2024-03-23T05:18:37;14.63;;;12.38;;
48751;SDS011;34544;48.836;9.174;2024-03-23T05:21:03;15.02;;;12.32;;
48751;SDS011;34544;48.836;9.174;2024-03-23T05:23:29;18.88;;;12.68;;
48751;SDS011;34544;48.836;9.174;2024-03-23T05:25:55;17.25;;;12.20;;
48751;SDS011;34544;48.836;9.174;2024-03-23T05:28:21;19.25;;;13.77;;
48751;SDS011;34544;48.836;9.174;2024-03-23T05:30:51;18.35;;;13.10;;
48751;SDS011;34544;48.836;9.174;2024-03-23T05:33:20;23.73;;;13.30;;
48751;SDS011;34544;48.836;9.174;2024-03-23T05:35:46;19.20;;;12.48;;
48751;SDS011;34544;48.836;9.174;2024-03-23T05:38:13;15.32;;;12.32;;
48751;SDS011;34544;48.836;9.174;2024-03-23T05:40:39;16.20;;;11.48;;
48751;SDS011;34544;48.836;9.174;2024-03-23T05:43:08;18.50;;;12.48;;
48751;SDS011;34544;48.836;9.174;2024-03-23T05:45:34;15.73;;;11.55;;
48751;SDS011;34544;48.836;9.174;2024-03-23T05:48:00;24.73;;;13.73;;
48751;SDS011;34544;48.836;9.174;2024-03-23T05:50:26;18.92;;;13.10;;
48751;SDS011;34544;48.836;9.174;2024-03-23T05:52:51;19.05;;;12.82;;
48751;SDS011;34544;48.836;9.174;2024-03-23T05:55:17;15.52;;;11.85;;
48751;SDS011;34544;48.836;9.174;2024-03-23T05:57:43;13.95;;;8.98;;
48751;SDS011;34544;48.836;9.174;2024-03-23T06:00:09;10.23;;;7.95;;
48751;SDS011;34544;48.836;9.174;2024-03-23T06:02:41;8.68;;;6.53;;
48751;SDS011;34544;48.836;9.174;2024-03-23T06:05:09;8.38;;;5.65;;
48751;SDS011;34544;48.836;9.174;2024-03-23T06:07:38;9.95;;;5.47;;
48751;SDS011;34544;48.836;9.174;2024-03-23T06:10:04;7.05;;;4.72;;
48751;SDS011;34544;48.836;9.174;2024-03-23T06:12:30;5.32;;;3.95;;
48751;SDS011;34544;48.836;9.174;2024-03-23T06:14:56;5.45;;;4.00;;
48751;SDS011;34544;48.836;9.174;2024-03-23T06:17:22;4.57;;;3.55;;
48751;SDS011;34544;48.836;9.174;2024-03-23T06:19:48;6.68;;;3.90;;
48751;SDS011;34544;48.836;9.174;2024-03-23T06:22:14;13.20;;;8.95;;
48751;SDS011;34544;48.836;9.174;2024-03-23T06:24:40;9.60;;;7.88;;
48751;SDS011;34544;48.836;9.174;2024-03-23T06:27:06;6.18;;;3.50;;
48751;SDS011;34544;48.836;9.174;2024-03-23T06:29:31;4.50;;;3.28;;
48751;SDS011;34544;48.836;9.174;2024-03-23T06:31:57;3.45;;;2.70;;
48751;SDS011;34544;48.836;9.174;2024-03-23T06:34:23;3.00;;;2.63;;
48751;SDS011;34544;48.836;9.174;2024-03-23T06:36:49;2.35;;;1.98;;
48751;SDS011;34544;48.836;9.174;2024-03-23T06:39:15;2.83;;;1.80;;
48751;SDS011;34544;48.836;9.174;2024-03-23T06:42:02;3.75;;;2.00;;
48751;SDS011;34544;48.836;9.174;2024-03-23T06:44:27;3.05;;;1.70;;
48751;SDS011;34544;48.836;9.174;2024-03-23T06:46:53;2.40;;;1.55;;
48751;SDS011;34544;48.836;9.174;2024-03-23T06:49:19;3.72;;;1.30;;
48751;SDS011;34544;48.836;9.174;2024-03-23T06:51:44;2.30;;;1.25;;
48751;SDS011;34544;48.836;9.174;2024-03-23T06:54:11;1.98;;;1.02;;
48751;SDS011;34544;48.836;9.174;2024-03-23T06:56:37;1.40;;;1.13;;
48751;SDS011;34544;48.836;9.174;2024-03-23T06:59:03;0.98;;;0.85;;
48751;SDS011;34544;48.836;9.174;2024-03-23T07:01:28;1.38;;;0.90;;
48751;SDS011;34544;48.836;9.174;2024-03-23T07:03:54;4.30;;;1.17;;
48751;SDS011;34544;48.836;9.174;2024-03-23T07:06:20;1.23;;;0.90;;
48751;SDS011;34544;48.836;9.174;2024-03-23T07:08:46;1.08;;;0.88;;
48751;SDS011;34544;48.836;9.174;2024-03-23T07:11:12;1.65;;;0.90;;
48751;SDS011;34544;48.836;9.174;2024-03-23T07:13:46;1.30;;;0.77;;
48751;SDS011;34544;48.836;9.174;2024-03-23T07:16:15;0.60;;;0.45;;
48751;SDS011;34544;48.836;9.174;2024-03-23T07:18:42;1.92;;;0.65;;
48751;SDS011;34544;48.836;9.174;2024-03-23T07:21:08;1.33;;;0.85;;
48751;SDS011;34544;48.836;9.174;2024-03-23T07:23:34;0.52;;;0.50;;
48751;SDS011;34544;48.836;9.174;2024-03-23T07:26:00;0.70;;;0.55;;
48751;SDS011;34544;48.836;9.174;2024-03-23T07:28:27;0.75;;;0.55;;
48751;SDS011;34544;48.836;9.174;2024-03-23T07:33:35;0.90;;;0.68;;
48751;SDS011;34544;48.836;9.174;2024-03-23T07:36:02;0.60;;;0.60;;
48751;SDS011;34544;48.836;9.174;2024-03-23T07:38:28;1.13;;;0.82;;
48751;SDS011;34544;48.836;9.174;2024-03-23T07:41:04;1.48;;;0.60;;
48751;SDS011;34544;48.836;9.174;2024-03-23T07:43:31;0.40;;;0.20;;
48751;SDS011;34544;48.836;9.174;2024-03-23T07:45:57;2.45;;;0.60;;
48751;SDS011;34544;48.836;9.174;2024-03-23T07:48:23;5.03;;;0.93;;
48751;SDS011;34544;48.836;9.174;2024-03-23T07:53:35;0.73;;;0.65;;
48751;SDS011;34544;48.836;9.174;2024-03-23T07:56:05;1.40;;;0.52;;
48751;SDS011;34544;48.836;9.174;2024-03-23T07:58:33;0.70;;;0.60;;
48751;SDS011;34544;48.836;9.174;2024-03-23T08:01:05;1.17;;;0.50;;
48751;SDS011;34544;48.836;9.174;2024-03-23T08:03:33;0.60;;;0.32;;
48751;SDS011;34544;48.836;9.174;2024-03-23T08:06:07;0.50;;;0.40;;
48751;SDS011;34544;48.836;9.174;2024-03-23T08:08:40;0.55;;;0.30;;
48751;SDS011;34544;48.836;9.174;2024-03-23T08:11:09;0.75;;;0.60;;
48751;SDS011;34544;48.836;9.174;2024-03-23T08:13:35;0.50;;;0.40;;
48751;SDS011;34544;48.836;9.174;2024-03-23T08:16:02;1.98;;;0.70;;
48751;SDS011;34544;48.836;9.174;2024-03-23T08:18:28;0.22;;;0.22;;
48751;SDS011;34544;48.836;9.174;2024-03-23T08:21:00;0.30;;;0.20;;
48751;SDS011;34544;48.836;9.174;2024-03-23T08:23:28;1.00;;;0.40;;
48751;SDS011;34544;48.836;9.174;2024-03-23T08:25:58;0.40;;;0.40;;
48751;SDS011;34544;48.836;9.174;2024-03-23T08:28:25;0.50;;;0.43;;
48751;SDS011;34544;48.836;9.174;2024-03-23T08:30:52;1.08;;;0.60;;
48751;SDS011;34544;48.836;9.174;2024-03-23T08:33:18;0.57;;;0.40;;
48751;SDS011;34544;48.836;9.174;2024-03-23T08:35:56;0.20;;;0.20;;
48751;SDS011;34544;48.836;9.174;2024-03-23T08:38:27;1.05;;;0.30;;
48751;SDS011;34544;48.836;9.174;2024-03-23T08:40:59;0.40;;;0.40;;
48751;SDS011;34544;48.836;9.174;2024-03-23T08:43:30;1.05;;;0.40;;
48751;SDS011;34544;48.836;9.174;2024-03-23T08:46:03;1.48;;;0.60;;
48751;SDS011;34544;48.836;9.174;2024-03-23T08:48:36;1.38;;;0.80;;
48751;SDS011;34544;48.836;9.174;2024-03-23T08:51:08;2.15;;;1.35;;
48751;SDS011;34544;48.836;9.174;2024-03-23T08:53:35;6.38;;;1.80;;
48751;SDS011;34544;48.836;9.174;2024-03-23T08:56:01;5.68;;;0.93;;
48751;SDS011;34544;48.836;9.174;2024-03-23T08:58:27;8.05;;;2.15;;
48751;SDS011;34544;48.836;9.174;2024-03-23T09:00:55;3.47;;;1.10;;
48751;SDS011;34544;48.836;9.174;2024-03-23T09:03:25;3.78;;;1.05;;
48751;SDS011;34544;48.836;9.174;2024-03-23T09:05:51;3.58;;;1.98;;
48751;SDS011;34544;48.836;9.174;2024-03-23T09:08:18;3.72;;;1.50;;
48751;SDS011;34544;48.836;9.174;2024-03-23T09:10:44;2.20;;;1.10;;
48751;SDS011;34544;48.836;9.174;2024-03-23T09:13:10;8.05;;;2.40;;
48751;SDS011;34544;48.836;9.174;2024-03-23T09:15:36;6.43;;;1.58;;
48751;SDS011;34544;48.836;9.174;2024-03-23T09:18:03;6.40;;;2.72;;
48751;SDS011;34544;48.836;9.174;2024-03-23T09:20:29;2.28;;;1.33;;
48751;SDS011;34544;48.836;9.174;2024-03-23T09:22:58;6.30;;;2.38;;
48751;SDS011;34544;48.836;9.174;2024-03-23T09:25:23;5.13;;;2.10;;
48751;SDS011;34544;48.836;9.174;2024-03-23T09:27:50;8.10;;;1.90;;
48751;SDS011;34544;48.836;9.174;2024-03-23T09:30:16;3.63;;;2.08;;
48751;SDS011;34544;48.836;9.174;2024-03-23T09:32:43;7.88;;;1.98;;
48751;SDS011;34544;48.836;9.174;2024-03-23T09:35:09;5.70;;;2.50;;
48751;SDS011;34544;48.836;9.174;2024-03-23T09:37:36;6.20;;;2.35;;
48751;SDS011;34544;48.836;9.174;2024-03-23T09:40:02;5.63;;;2.03;;
48751;SDS011;34544;48.836;9.174;2024-03-23T09:42:28;5.13;;;1.85;;
48751;SDS011;34544;48.836;9.174;2024-03-23T09:44:54;4.50;;;1.67;;
48751;SDS011;34544;48.836;9.174;2024-03-23T09:47:23;8.82;;;1.95;;
48751;SDS011;34544;48.836;9.174;2024-03-23T09:49:50;4.03;;;2.00;;
48751;SDS011;34544;48.836;9.174;2024-03-23T09:52:16;4.32;;;1.88;;
48751;SDS011;34544;48.836;9.174;2024-03-23T09:54:42;5.50;;;2.17;;
48751;SDS011;34544;48.836;9.174;2024-03-23T09:57:08;4.57;;;2.20;;
48751;SDS011;34544;48.836;9.174;2024-03-23T09:59:33;4.28;;;1.92;;
48751;SDS011;34544;48.836;9.174;2024-03-23T10:02:00;9.95;;;2.50;;
48751;SDS011;34544;48.836;9.174;2024-03-23T10:04:39;4.10;;;2.38;;
48751;SDS011;34544;48.836;9.174;2024-03-23T10:07:12;6.50;;;2.35;;
48751;SDS011;34544;48.836;9.174;2024-03-23T10:09:44;5.90;;;2.22;;
48751;SDS011;34544;48.836;9.174;2024-03-23T10:12:11;9.43;;;2.35;;
48751;SDS011;34544;48.836;9.174;2024-03-23T10:14:42;5.80;;;3.20;;
48751;SDS011;34544;48.836;9.174;2024-03-23T10:17:15;7.28;;;2.22;;
48751;SDS011;34544;48.836;9.174;2024-03-23T10:19:47;7.43;;;2.53;;
48751;SDS011;34544;48.836;9.174;2024-03-23T10:22:17;10.48;;;4.45;;
48751;SDS011;34544;48.836;9.174;2024-03-23T10:24:44;7.93;;;2.53;;
48751;SDS011;34544;48.836;9.174;2024-03-23T10:27:10;9.88;;;2.63;;
48751;SDS011;34544;48.836;9.174;2024-03-23T10:29:46;9.40;;;3.30;;
48751;SDS011;34544;48.836;9.174;2024-03-23T10:32:13;4.35;;;2.70;;
48751;SDS011;34544;48.836;9.174;2024-03-23T10:34:39;7.40;;;3.05;;
48751;SDS011;34544;48.836;9.174;2024-03-23T10:37:06;6.35;;;2.63;;
48751;SDS011;34544;48.836;9.174;2024-03-23T10:39:38;5.20;;;2.00;;
48751;SDS011;34544;48.836;9.174;2024-03-23T10:42:09;11.20;;;2.72;;
48751;SDS011;34544;48.836;9.174;2024-03-23T10:44:38;7.45;;;2.83;;
48751;SDS011;34544;48.836;9.174;2024-03-23T10:47:04;7.82;;;3.25;;
48751;SDS011;34544;48.836;9.174;2024-03-23T10:49:31;5.95;;;2.40;;
48751;SDS011;34544;48.836;9.174;2024-03-23T10:52:02;9.13;;;3.00;;
48751;SDS011;34544;48.836;9.174;2024-03-23T10:54:32;7.40;;;3.08;;
48751;SDS011;34544;48.836;9.174;2024-03-23T10:59:43;8.55;;;3.50;;
48751;SDS011;34544;48.836;9.174;2024-03-23T11:02:18;9.63;;;4.55;;
48751;SDS011;34544;48.836;9.174;2024-03-23T11:04:44;6.68;;;3.20;;
48751;SDS011;34544;48.836;9.174;2024-03-23T11:07:31;6.15;;;3.45;;
48751;SDS011;34544;48.836;9.174;2024-03-23T11:09:58;4.90;;;2.85;;
48751;SDS011;34544;48.836;9.174;2024-03-23T11:12:25;6.45;;;2.72;;
48751;SDS011;34544;48.836;9.174;2024-03-23T11:17:24;10.95;;;3.58;;
48751;SDS011;34544;48.836;9.174;2024-03-23T11:22:45;9.82;;;4.10;;
48751;SDS011;34544;48.836;9.174;2024-03-23T11:25:17;8.88;;;3.42;;
48751;SDS011;34544;48.836;9.174;2024-03-23T11:27:54;6.57;;;2.90;;
48751;SDS011;34544;48.836;9.174;2024-03-23T11:30:35;3.92;;;2.95;;
48751;SDS011;34544;48.836;9.174;2024-03-23T11:33:03;4.35;;;2.85;;
48751;SDS011;34544;48.836;9.174;2024-03-23T11:35:33;4.25;;;1.90;;
48751;SDS011;34544;48.836;9.174;2024-03-23T11:38:10;4.82;;;2.42;;
48751;SDS011;34544;48.836;9.174;2024-03-23T11:40:46;5.38;;;1.70;;
48751;SDS011;34544;48.836;9.174;2024-03-23T11:43:16;4.57;;;1.63;;
48751;SDS011;34544;48.836;9.174;2024-03-23T11:48:11;5.38;;;2.28;;
48751;SDS011;34544;48.836;9.174;2024-03-23T11:50:44;4.15;;;2.00;;
48751;SDS011;34544;48.836;9.174;2024-03-23T11:55:50;4.78;;;1.90;;
48751;SDS011;34544;48.836;9.174;2024-03-23T11:58:18;5.75;;;1.60;;
48751;SDS011;34544;48.836;9.174;2024-03-23T12:03:23;6.38;;;1.67;;
48751;SDS011;34544;48.836;9.174;2024-03-23T12:05:58;5.55;;;2.55;;
48751;SDS011;34544;48.836;9.174;2024-03-23T12:08:30;4.28;;;2.15;;
48751;SDS011;34544;48.836;9.174;2024-03-23T12:13:42;5.72;;;1.75;;
48751;SDS011;34544;48.836;9.174;2024-03-23T12:16:13;11.50;;;1.85;;
48751;SDS011;34544;48.836;9.174;2024-03-23T12:18:47;7.82;;;1.45;;
48751;SDS011;34544;48.836;9.174;2024-03-23T12:21:14;4.85;;;1.08;;
48751;SDS011;34544;48.836;9.174;2024-03-23T12:23:41;5.78;;;1.83;;
48751;SDS011;34544;48.836;9.174;2024-03-23T12:26:09;9.50;;;1.52;;
48751;SDS011;34544;48.836;9.174;2024-03-23T12:28:35;7.22;;;1.30;;
48751;SDS011;34544;48.836;9.174;2024-03-23T12:31:02;3.45;;;1.00;;
48751;SDS011;34544;48.836;9.174;2024-03-23T12:33:28;8.25;;;1.83;;
48751;SDS011;34544;48.836;9.174;2024-03-23T12:35:54;4.57;;;1.42;;
48751;SDS011;34544;48.836;9.174;2024-03-23T12:38:20;5.38;;;1.50;;
48751;SDS011;34544;48.836;9.174;2024-03-23T12:40:46;5.47;;;1.38;;
48751;SDS011;34544;48.836;9.174;2024-03-23T12:43:15;7.15;;;2.28;;
48751;SDS011;34544;48.836;9.174;2024-03-23T12:45:41;5.85;;;1.63;;
48751;SDS011;34544;48.836;9.174;2024-03-23T12:48:12;5.28;;;1.35;;
48751;SDS011;34544;48.836;9.174;2024-03-23T12:50:37;10.82;;;3.40;;
48751;SDS011;34544;48.836;9.174;2024-03-23T12:53:03;6.10;;;1.73;;
48751;SDS011;34544;48.836;9.174;2024-03-23T12:55:30;5.15;;;1.70;;
48751;SDS011;34544;48.836;9.174;2024-03-23T12:57:55;13.38;;;2.42;;
48751;SDS011;34544;48.836;9.174;2024-03-23T13:00:21;11.85;;;3.85;;
48751;SDS011;34544;48.836;9.174;2024-03-23T13:02:47;7.65;;;2.10;;
48751;SDS011;34544;48.836;9.174;2024-03-23T13:05:13;8.00;;;2.30;;
48751;SDS011;34544;48.836;9.174;2024-03-23T13:07:38;4.65;;;1.77;;
48751;SDS011;34544;48.836;9.174;2024-03-23T13:10:05;6.03;;;1.83;;
48751;SDS011;34544;48.836;9.174;2024-03-23T13:12:31;6.25;;;2.88;;
48751;SDS011;34544;48.836;9.174;2024-03-23T13:14:58;7.45;;;1.80;;
48751;SDS011;34544;48.836;9.174;2024-03-23T13:17:24;10.60;;;2.33;;
48751;SDS011;34544;48.836;9.174;2024-03-23T13:19:52;7.22;;;2.00;;
48751;SDS011;34544;48.836;9.174;2024-03-23T13:22:18;3.90;;;1.65;;
48751;SDS011;34544;48.836;9.174;2024-03-23T13:24:43;5.18;;;2.22;;
48751;SDS011;34544;48.836;9.174;2024-03-23T13:27:09;7.53;;;1.85;;
48751;SDS011;34544;48.836;9.174;2024-03-23T13:29:36;10.73;;;3.08;;
48751;SDS011;34544;48.836;9.174;2024-03-23T13:32:03;7.38;;;1.65;;
48751;SDS011;34544;48.836;9.174;2024-03-23T13:34:29;3.10;;;1.55;;
48751;SDS011;34544;48.836;9.174;2024-03-23T13:36:55;4.85;;;1.52;;
48751;SDS011;34544;48.836;9.174;2024-03-23T13:39:24;5.20;;;2.50;;
48751;SDS011;34544;48.836;9.174;2024-03-23T13:41:50;6.07;;;1.30;;
48751;SDS011;34544;48.836;9.174;2024-03-23T13:44:16;8.90;;;1.63;;
48751;SDS011;34544;48.836;9.174;2024-03-23T13:46:42;3.80;;;1.38;;
48751;SDS011;34544;48.836;9.174;2024-03-23T13:49:14;4.60;;;1.80;;
48751;SDS011;34544;48.836;9.174;2024-03-23T13:51:51;6.72;;;1.98;;
48751;SDS011;34544;48.836;9.174;2024-03-23T13:54:17;4.97;;;2.10;;
48751;SDS011;34544;48.836;9.174;2024-03-23T13:56:43;8.20;;;1.42;;
48751;SDS011;34544;48.836;9.174;2024-03-23T13:59:09;6.45;;;1.30;;
48751;SDS011;34544;48.836;9.174;2024-03-23T14:01:35;3.58;;;1.05;;
48751;SDS011;34544;48.836;9.174;2024-03-23T14:04:01;4.93;;;1.63;;
48751;SDS011;34544;48.836;9.174;2024-03-23T14:06:27;3.80;;;1.20;;
48751;SDS011;34544;48.836;9.174;2024-03-23T14:08:53;6.10;;;1.77;;
48751;SDS011;34544;48.836;9.174;2024-03-23T14:11:18;3.88;;;1.00;;
48751;SDS011;34544;48.836;9.174;2024-03-23T14:13:44;5.13;;;1.30;;
48751;SDS011;34544;48.836;9.174;2024-03-23T14:16:10;3.13;;;0.90;;
48751;SDS011;34544;48.836;9.174;2024-03-23T14:18:39;6.45;;;1.33;;
48751;SDS011;34544;48.836;9.174;2024-03-23T14:21:04;2.58;;;1.02;;
48751;SDS011;34544;48.836;9.174;2024-03-23T14:23:31;3.08;;;0.68;;
48751;SDS011;34544;48.836;9.174;2024-03-23T14:26:00;3.55;;;1.50;;
48751;SDS011;34544;48.836;9.174;2024-03-23T14:28:25;5.93;;;1.10;;
48751;SDS011;34544;48.836;9.174;2024-03-23T14:30:52;2.30;;;0.90;;
48751;SDS011;34544;48.836;9.174;2024-03-23T14:33:20;2.92;;;0.60;;
48751;SDS011;34544;48.836;9.174;2024-03-23T14:35:53;1.38;;;0.60;;
48751;SDS011;34544;48.836;9.174;2024-03-23T14:38:22;1.92;;;0.75;;
48751;SDS011;34544;48.836;9.174;2024-03-23T14:40:49;2.75;;;0.65;;
48751;SDS011;34544;48.836;9.174;2024-03-23T14:43:16;0.95;;;0.50;;
48751;SDS011;34544;48.836;9.174;2024-03-23T14:48:38;2.17;;;0.82;;
48751;SDS011;34544;48.836;9.174;2024-03-23T14:51:04;6.85;;;1.00;;
48751;SDS011;34544;48.836;9.174;2024-03-23T14:53:33;4.40;;;1.33;;
48751;SDS011;34544;48.836;9.174;2024-03-23T14:56:00;3.40;;;1.13;;
48751;SDS011;34544;48.836;9.174;2024-03-23T14:58:27;4.38;;;1.20;;
48751;SDS011;34544;48.836;9.174;2024-03-23T15:01:06;4.85;;;1.15;;
48751;SDS011;34544;48.836;9.174;2024-03-23T15:03:35;4.72;;;1.13;;
48751;SDS011;34544;48.836;9.174;2024-03-23T15:06:05;5.07;;;1.27;;
48751;SDS011;34544;48.836;9.174;2024-03-23T15:08:32;1.83;;;1.00;;
48751;SDS011;34544;48.836;9.174;2024-03-23T15:10:58;9.98;;;1.52;;
48751;SDS011;34544;48.836;9.174;2024-03-23T15:13:25;2.13;;;0.77;;
48751;SDS011;34544;48.836;9.174;2024-03-23T15:15:51;2.63;;;1.23;;
48751;SDS011;34544;48.836;9.174;2024-03-23T15:18:17;3.60;;;0.80;;
48751;SDS011;34544;48.836;9.174;2024-03-23T15:20:56;2.47;;;1.38;;
48751;SDS011;34544;48.836;9.174;2024-03-23T15:23:27;3.50;;;0.98;;
48751;SDS011;34544;48.836;9.174;2024-03-23T15:25:57;2.08;;;0.52;;
48751;SDS011;34544;48.836;9.174;2024-03-23T15:28:23;5.88;;;1.13;;
48751;SDS011;34544;48.836;9.174;2024-03-23T15:30:52;3.90;;;1.25;;
48751;SDS011;34544;48.836;9.174;2024-03-23T15:33:18;2.55;;;0.70;;
48751;SDS011;34544;48.836;9.174;2024-03-23T15:35:45;2.55;;;0.82;;
48751;SDS011;34544;48.836;9.174;2024-03-23T15:38:11;3.25;;;1.02;;
48751;SDS011;34544;48.836;9.174;2024-03-23T15:40:36;2.70;;;1.05;;
48751;SDS011;34544;48.836;9.174;2024-03-23T15:43:02;1.77;;;0.73;;
48751;SDS011;34544;48.836;9.174;2024-03-23T15:45:27;1.40;;;0.70;;
48751;SDS011;34544;48.836;9.174;2024-03-23T15:47:53;3.50;;;0.43;;
48751;SDS011;34544;48.836;9.174;2024-03-23T15:50:19;1.80;;;0.60;;
48751;SDS011;34544;48.836;9.174;2024-03-23T15:52:44;1.05;;;0.60;;
48751;SDS011;34544;48.836;9.174;2024-03-23T15:55:10;3.42;;;0.85;;
48751;SDS011;34544;48.836;9.174;2024-03-23T15:57:36;2.80;;;0.90;;
48751;SDS011;34544;48.836;9.174;2024-03-23T16:00:02;3.85;;;0.90;;
48751;SDS011;34544;48.836;9.174;2024-03-23T16:02:37;3.72;;;0.95;;
48751;SDS011;34544;48.836;9.174;2024-03-23T16:05:02;1.98;;;0.65;;